KLBF/LBF METAR and TAF weather

Enter ICAO airport designator
Station Type Date Time Source
KLBF METAR 2020/07/14 20:53 UTC NOAA

KLBF 142053Z AUTO 05008KT 10SM BKN036 24/14 A3002 RMK AO2 SLP142 T02390144 55003


Station Type Date Time Source
KLBF Decoded METAR 2020/07/14 20:53 UTC NOAA

NORTH PLATTE REGIONAL AIRPORT , NE, United States (KLBF) 41-07N 100-40W 847M
Jul 14, 2020 - 04:53 PM EDT / 2020.07.14 2053 UTC
Wind: from the NE (050 degrees) at 9 MPH (8 KT):0
Visibility: 10 mile(s):0
Sky conditions: mostly cloudy
Temperature: 75.0 F (23.9 C)
Dew Point: 57.9 F (14.4 C)
Relative Humidity: 55%
Pressure (altimeter): 30.02 in. Hg (1016 hPa)
Pressure tendency: 0.01 inches (0.3 hPa) lower than three hours ago
ob: KLBF 142053Z AUTO 05008KT 10SM BKN036 24/14 A3002 RMK AO2 SLP142 T02390144 55003
cycle: 21

Station Type Date Time Source
KLBF TAF 2020/07/14 18:24 UTC NOAA

TAF KLBF 141723Z 1418/1518 05015G24KT P6SM BKN028
FM142000 05013G21KT P6SM BKN050
FM142200 05012KT P6SM BKN090
FM151200 02005KT P6SM BKN070
FM151600 04006KT P6SM SCT200

Example: see airport list